createdAt,value
2022-12-29T00:00:13.073Z,99648.02
2022-12-29T00:03:04.508Z,99646.56
2022-12-29T00:05:32.697Z,99644.77
2022-12-29T00:08:02.130Z,99648.41
2022-12-29T00:10:31.819Z,99648.45
2022-12-29T00:13:19.964Z,99652.86
2022-12-29T00:15:51.857Z,99651.80
2022-12-29T00:18:22.604Z,99652.23
2022-12-29T00:21:28.914Z,99654.44
2022-12-29T00:24:15.738Z,99644.27
2022-12-29T00:27:06.779Z,99639.86
2022-12-29T00:29:54.515Z,99645.15
2022-12-29T00:32:40.950Z,99636.90
2022-12-29T00:35:14.579Z,99640.42
2022-12-29T00:38:07.279Z,99643.32
2022-12-29T00:40:56.513Z,99639.80
2022-12-29T00:43:45.006Z,99638.73
2022-12-29T00:46:19.719Z,99632.38
2022-12-29T00:49:34.053Z,99634.16
2022-12-29T00:52:10.814Z,99631.67
2022-12-29T00:54:40.729Z,99624.90
2022-12-29T00:57:10.535Z,99621.40
2022-12-29T00:59:40.953Z,99618.15
2022-12-29T01:02:11.037Z,99620.45
2022-12-29T01:04:39.857Z,99616.60
2022-12-29T01:07:09.416Z,99615.48
2022-12-29T01:09:57.882Z,99612.40
2022-12-29T01:12:40.970Z,99613.80
2022-12-29T01:15:13.505Z,99608.48
2022-12-29T01:17:43.328Z,99608.66
2022-12-29T01:20:13.624Z,99607.77
2022-12-29T01:22:43.139Z,99604.45
2022-12-29T01:25:10.991Z,99594.63
2022-12-29T01:27:39.886Z,99599.06
2022-12-29T01:30:09.124Z,99590.08
2022-12-29T01:32:37.914Z,99593.71
2022-12-29T01:35:07.161Z,99583.73
2022-12-29T01:37:36.332Z,99579.73
2022-12-29T01:40:05.422Z,99575.63
2022-12-29T01:42:34.247Z,99573.20
2022-12-29T01:45:14.173Z,99577.72
2022-12-29T01:47:53.293Z,99574.94
2022-12-29T01:50:31.808Z,99575.88
2022-12-29T01:53:08.585Z,99579.19
2022-12-29T01:55:44.910Z,99577.36
2022-12-29T01:58:16.697Z,99578.25
2022-12-29T02:00:46.591Z,99576.65
2022-12-29T02:03:17.561Z,99576.06
2022-12-29T02:05:59.794Z,99572.42
2022-12-29T02:08:31.877Z,99571.55
2022-12-29T02:11:02.911Z,99571.57
2022-12-29T02:13:33.684Z,99579.59
2022-12-29T02:16:26.123Z,99577.34
2022-12-29T02:19:44.382Z,99580.83
2022-12-29T02:22:31.243Z,99576.08
2022-12-29T02:25:42.371Z,99575.55
2022-12-29T02:28:25.747Z,99577.46
2022-12-29T02:31:00.168Z,99572.10
2022-12-29T02:33:53.711Z,99575.98
2022-12-29T02:36:32.808Z,99578.02
2022-12-29T02:39:13.203Z,99574.36
2022-12-29T02:42:04.542Z,99565.95
2022-12-29T02:45:17.212Z,99560.63
2022-12-29T02:47:55.970Z,99557.13
2022-12-29T02:50:36.530Z,99556.41
2022-12-29T02:53:15.593Z,99553.36
2022-12-29T02:55:53.780Z,99551.98
2022-12-29T02:58:24.371Z,99547.08
2022-12-29T03:01:26.035Z,99548.65
2022-12-29T03:04:04.754Z,99542.46
2022-12-29T03:06:52.708Z,99540.19
2022-12-29T03:09:32.874Z,99531.60
2022-12-29T03:12:15.390Z,99521.89
2022-12-29T03:15:29.742Z,99509.56
2022-12-29T03:18:07.455Z,99519.48
2022-12-29T03:20:44.539Z,99518.45
2022-12-29T03:23:14.953Z,99516.79
2022-12-29T03:25:52.093Z,99519.20
2022-12-29T03:28:54.317Z,99518.77
2022-12-29T03:31:26.968Z,99520.64
2022-12-29T03:33:57.621Z,99520.61
2022-12-29T03:36:34.807Z,99515.11
2022-12-29T03:39:15.335Z,99516.30
2022-12-29T03:41:46.731Z,99507.64
2022-12-29T03:44:14.858Z,99513.77
2022-12-29T03:46:42.676Z,99504.12
2022-12-29T03:49:11.936Z,99497.77
2022-12-29T03:51:40.855Z,99492.85
2022-12-29T03:54:08.565Z,99494.65
2022-12-29T03:56:36.351Z,99497.97
2022-12-29T03:59:04.232Z,99502.67
2022-12-29T04:01:39.856Z,99497.63
2022-12-29T04:04:08.727Z,99486.48
2022-12-29T04:06:38.445Z,99486.01
2022-12-29T04:09:08.517Z,99482.39
2022-12-29T04:11:45.048Z,99481.52
2022-12-29T04:14:13.804Z,99482.64
2022-12-29T04:16:42.454Z,99482.89
2022-12-29T04:19:11.679Z,99483.50
2022-12-29T04:21:39.992Z,99490.18
2022-12-29T04:24:09.873Z,99488.86
2022-12-29T04:26:43.335Z,99484.30
2022-12-29T04:29:29.839Z,99474.55
2022-12-29T04:32:27.394Z,99477.13
2022-12-29T04:34:57.419Z,99475.41
2022-12-29T04:37:26.104Z,99474.11
2022-12-29T04:39:54.297Z,99473.45
2022-12-29T04:42:22.260Z,99473.58
2022-12-29T04:44:51.799Z,99470.90
2022-12-29T04:47:54.822Z,99472.55
2022-12-29T04:50:50.937Z,99474.56
2022-12-29T04:53:20.537Z,99467.09
2022-12-29T04:55:52.939Z,99468.16
2022-12-29T04:58:23.594Z,99465.95
2022-12-29T05:00:54.246Z,99459.68
2022-12-29T05:03:26.489Z,99457.16
2022-12-29T05:05:58.331Z,99457.97
2022-12-29T05:08:28.292Z,99457.90
2022-12-29T05:10:59.390Z,99453.29
2022-12-29T05:13:28.195Z,99449.16
2022-12-29T05:15:57.828Z,99450.02
2022-12-29T05:18:25.703Z,99445.56
2022-12-29T05:20:55.209Z,99451.21
2022-12-29T05:23:25.273Z,99447.00
2022-12-29T05:26:01.232Z,99448.84
2022-12-29T05:28:58.397Z,99447.91
2022-12-29T05:31:27.134Z,99445.56
2022-12-29T05:33:55.831Z,99444.48
2022-12-29T05:36:24.125Z,99436.35
2022-12-29T05:38:57.580Z,99434.14
2022-12-29T05:41:28.286Z,99430.45
2022-12-29T05:44:28.813Z,99429.18
2022-12-29T05:47:16.761Z,99434.04
2022-12-29T05:54:23.261Z,99438.16
2022-12-29T05:56:51.747Z,99433.11
2022-12-29T05:59:19.775Z,99433.10
2022-12-29T06:01:53.427Z,99426.39
2022-12-29T06:04:22.378Z,99430.20
2022-12-29T06:06:56.664Z,99438.19
2022-12-29T06:09:33.750Z,99437.05
2022-12-29T06:12:03.531Z,99437.05
2022-12-29T06:14:33.190Z,99432.50
2022-12-29T06:17:01.614Z,99432.92
2022-12-29T06:19:31.608Z,99424.23
2022-12-29T06:22:01.016Z,99419.12
2022-12-29T06:24:30.778Z,99417.02
2022-12-29T06:26:59.704Z,99411.59
2022-12-29T06:29:28.522Z,99397.80
2022-12-29T06:32:01.561Z,99397.64
2022-12-29T06:34:34.278Z,99391.98
2022-12-29T06:37:04.022Z,99384.64
2022-12-29T06:39:33.544Z,99379.66
2022-12-29T06:42:06.584Z,99373.33
2022-12-29T06:45:08.183Z,99372.22
2022-12-29T06:47:36.576Z,99376.33
2022-12-29T06:50:30.879Z,99380.56
2022-12-29T06:52:58.637Z,99375.73
2022-12-29T06:55:28.620Z,99376.85
2022-12-29T06:57:57.757Z,99376.55
2022-12-29T07:00:26.350Z,99383.86
2022-12-29T07:02:56.187Z,99396.58
2022-12-29T07:05:28.293Z,99389.28
2022-12-29T07:07:57.536Z,99389.92
2022-12-29T07:10:25.846Z,99393.83
2022-12-29T07:12:53.785Z,99398.33
2022-12-29T07:15:21.879Z,99400.63
2022-12-29T07:17:52.992Z,99399.23
2022-12-29T07:20:26.538Z,99393.16
2022-12-29T07:22:55.380Z,99385.36
2022-12-29T07:25:23.613Z,99376.58
2022-12-29T07:27:55.098Z,99371.28
2022-12-29T07:30:23.874Z,99374.56
2022-12-29T07:32:53.551Z,99375.77
2022-12-29T07:35:21.883Z,99381.46
2022-12-29T07:37:50.214Z,99377.67
2022-12-29T07:40:18.031Z,99386.31
2022-12-29T07:42:48.112Z,99389.98
2022-12-29T07:45:19.243Z,99403.24
2022-12-29T07:47:55.204Z,99410.69
2022-12-29T07:50:24.370Z,99422.57
2022-12-29T07:52:54.110Z,99424.19
2022-12-29T07:55:21.867Z,99430.27
2022-12-29T07:57:50.159Z,99424.39
2022-12-29T08:00:20.308Z,99409.84
2022-12-29T08:02:50.666Z,99412.15
2022-12-29T08:05:18.487Z,99408.25
2022-12-29T08:07:47.874Z,99418.33
2022-12-29T08:10:17.269Z,99407.59
2022-12-29T08:12:45.615Z,99399.61
2022-12-29T08:15:15.706Z,99388.80
2022-12-29T08:17:46.359Z,99388.38
2022-12-29T08:20:14.075Z,99388.30
2022-12-29T08:22:41.821Z,99398.55
2022-12-29T08:25:11.217Z,99398.90
2022-12-29T08:27:44.196Z,99403.61
2022-12-29T08:30:12.739Z,99405.77
2022-12-29T08:32:42.328Z,99406.30
2022-12-29T08:35:11.838Z,99408.27
2022-12-29T08:37:40.243Z,99408.06
2022-12-29T08:40:11.904Z,99414.38
2022-12-29T08:42:42.561Z,99418.56
2022-12-29T08:45:10.869Z,99422.84
2022-12-29T08:47:38.760Z,99420.91
2022-12-29T08:50:57.121Z,99414.92
2022-12-29T08:53:24.890Z,99407.42
2022-12-29T08:56:04.095Z,99402.88
2022-12-29T08:58:36.739Z,99389.86
2022-12-29T09:01:05.718Z,99388.30
2022-12-29T09:06:24.379Z,99402.53
2022-12-29T09:08:57.889Z,99394.59
2022-12-29T09:11:27.015Z,99392.21
2022-12-29T09:13:56.995Z,99378.50
2022-12-29T09:16:26.230Z,99379.13
2022-12-29T09:18:57.655Z,99378.27
2022-12-29T09:21:25.561Z,99378.63
2022-12-29T09:23:56.214Z,99379.11
2022-12-29T09:26:24.868Z,99380.40
2022-12-29T09:28:53.658Z,99376.39
2022-12-29T09:31:22.926Z,99372.66
2022-12-29T09:33:50.954Z,99377.52
2022-12-29T09:36:18.423Z,99380.30
2022-12-29T09:38:45.981Z,99383.35
2022-12-29T09:41:24.596Z,99383.23
2022-12-29T09:44:06.510Z,99378.09
2022-12-29T09:46:51.354Z,99382.66
2022-12-29T09:49:55.341Z,99377.95
2022-12-29T09:52:30.388Z,99374.94
2022-12-29T09:55:14.172Z,99368.56
2022-12-29T09:57:45.743Z,99365.23
2022-12-29T10:00:39.011Z,99362.34
2022-12-29T10:03:33.984Z,99356.08
2022-12-29T10:06:18.914Z,99352.73
2022-12-29T10:09:30.780Z,99355.98
2022-12-29T10:12:20.070Z,99368.17
2022-12-29T10:15:15.299Z,99357.63
2022-12-29T10:17:51.284Z,99346.04
2022-12-29T10:20:43.103Z,99349.20
2022-12-29T10:23:38.293Z,99356.98
2022-12-29T10:26:25.876Z,99339.83
2022-12-29T10:29:04.600Z,99332.77
2022-12-29T10:32:02.297Z,99337.09
2022-12-29T10:37:48.464Z,99343.92
2022-12-29T10:40:52.488Z,99335.77
2022-12-29T10:43:29.263Z,99327.58
2022-12-29T10:46:04.442Z,99330.85
2022-12-29T10:49:02.791Z,99332.58
2022-12-29T10:51:41.831Z,99332.60
2022-12-29T10:54:42.002Z,99339.25
2022-12-29T10:57:19.062Z,99338.70
2022-12-29T10:59:49.055Z,99335.55
2022-12-29T11:02:25.267Z,99338.65
2022-12-29T11:05:12.550Z,99334.11
2022-12-29T11:07:42.564Z,99327.11
2022-12-29T11:10:41.678Z,99325.05
2022-12-29T11:13:53.115Z,99323.75
2022-12-29T11:16:57.178Z,99317.72
2022-12-29T11:19:32.998Z,99319.97
2022-12-29T11:22:26.082Z,99320.67
2022-12-29T11:25:06.429Z,99320.89
2022-12-29T11:27:34.812Z,99320.71
2022-12-29T11:30:05.535Z,99319.08
2022-12-29T11:32:35.612Z,99323.55
2022-12-29T11:35:06.693Z,99326.47
2022-12-29T11:37:42.921Z,99325.46
2022-12-29T11:40:23.674Z,99324.71
2022-12-29T11:42:54.005Z,99322.73
2022-12-29T11:45:33.467Z,99323.56
2022-12-29T11:48:11.180Z,99322.75
2022-12-29T11:50:42.986Z,99317.80
2022-12-29T11:53:24.561Z,99312.08
2022-12-29T11:55:59.786Z,99314.23
2022-12-29T11:58:35.757Z,99306.75
2022-12-29T12:01:26.539Z,99310.69
2022-12-29T12:04:05.985Z,99306.68
2022-12-29T12:06:43.889Z,99308.33
2022-12-29T12:09:26.772Z,99310.31
2022-12-29T12:11:58.995Z,99307.20
2022-12-29T12:14:46.806Z,99302.25
2022-12-29T12:18:04.787Z,99297.62
2022-12-29T12:20:45.424Z,99293.40
2022-12-29T12:23:58.931Z,99283.61
2022-12-29T12:26:58.410Z,99289.27
2022-12-29T12:29:56.880Z,99282.13
2022-12-29T12:32:45.665Z,99282.38
2022-12-29T12:35:21.548Z,99279.13
2022-12-29T12:38:20.575Z,99273.73
2022-12-29T12:41:02.468Z,99271.05
2022-12-29T12:44:01.807Z,99275.70
2022-12-29T12:46:58.000Z,99263.04
2022-12-29T12:50:12.763Z,99263.20
2022-12-29T12:53:14.911Z,99261.23
2022-12-29T12:56:03.621Z,99261.25
2022-12-29T12:59:05.556Z,99268.43
2022-12-29T13:01:52.688Z,99265.98
2022-12-29T13:04:41.336Z,99270.53
2022-12-29T13:07:17.587Z,99267.54
2022-12-29T13:10:05.870Z,99268.10
2022-12-29T13:12:43.722Z,99270.74
2022-12-29T13:15:47.010Z,99273.38
2022-12-29T13:18:30.496Z,99261.80
2022-12-29T13:21:07.097Z,99266.91
2022-12-29T13:23:53.125Z,99272.77
2022-12-29T13:26:37.116Z,99270.30
2022-12-29T13:29:37.087Z,99272.80
2022-12-29T13:32:13.813Z,99276.47
2022-12-29T13:34:47.674Z,99276.35
2022-12-29T13:37:24.023Z,99276.59
2022-12-29T13:39:57.095Z,99287.27
2022-12-29T13:42:27.484Z,99290.96
2022-12-29T13:45:07.792Z,99283.89
2022-12-29T13:47:47.217Z,99285.13
2022-12-29T13:50:25.960Z,99288.70
2022-12-29T13:53:05.351Z,99301.90
2022-12-29T13:56:09.129Z,99303.44
2022-12-29T13:58:47.196Z,99302.96
2022-12-29T14:01:45.656Z,99312.19
2022-12-29T14:04:28.931Z,99310.66
2022-12-29T14:07:18.516Z,99311.89
2022-12-29T14:09:55.425Z,99300.61
2022-12-29T14:12:39.832Z,99298.23
2022-12-29T14:15:23.874Z,99303.46
2022-12-29T14:18:12.332Z,99313.55
2022-12-29T14:21:00.269Z,99312.41
2022-12-29T14:23:37.910Z,99305.05
2022-12-29T14:26:06.549Z,99313.53
2022-12-29T14:28:41.155Z,99312.62
2022-12-29T14:31:15.800Z,99311.44
2022-12-29T14:34:11.703Z,99310.71
2022-12-29T14:36:55.189Z,99315.02
2022-12-29T14:39:41.872Z,99309.27
2022-12-29T14:42:09.675Z,99308.42
2022-12-29T14:44:57.338Z,99306.23
2022-12-29T14:47:44.879Z,99304.34
2022-12-29T14:50:41.891Z,99301.40
2022-12-29T14:53:45.000Z,99307.70
2022-12-29T14:56:16.663Z,99310.63
2022-12-29T14:58:51.053Z,99304.70
2022-12-29T15:01:53.131Z,99303.52
2022-12-29T15:04:41.305Z,99305.31
2022-12-29T15:07:11.404Z,99309.48
2022-12-29T15:10:14.314Z,99312.70
2022-12-29T15:12:53.406Z,99311.06
2022-12-29T15:15:30.614Z,99307.77
2022-12-29T15:18:13.837Z,99306.62
2022-12-29T15:20:43.689Z,99305.73
2022-12-29T15:23:17.323Z,99305.44
2022-12-29T15:26:03.146Z,99307.08
2022-12-29T15:28:43.471Z,99303.60
2022-12-29T15:31:46.694Z,99300.75
2022-12-29T15:34:15.382Z,99299.61
2022-12-29T15:36:43.477Z,99300.03
2022-12-29T15:39:28.698Z,99300.96
2022-12-29T15:42:04.732Z,99306.38
2022-12-29T15:44:43.933Z,99304.79
2022-12-29T15:47:37.417Z,99305.51
2022-12-29T15:50:37.795Z,99301.06
2022-12-29T15:53:12.236Z,99300.97
2022-12-29T15:55:44.033Z,99296.25
2022-12-29T15:58:40.316Z,99290.83
2022-12-29T16:01:37.268Z,99279.80
2022-12-29T16:04:10.495Z,99292.65
2022-12-29T16:07:27.804Z,99291.58
2022-12-29T16:10:00.237Z,99296.91
2022-12-29T16:12:35.163Z,99301.63
2022-12-29T16:15:09.000Z,99303.20
2022-12-29T16:17:54.940Z,99306.92
2022-12-29T16:20:43.587Z,99307.84
2022-12-29T16:23:38.376Z,99306.66
2022-12-29T16:27:36.922Z,99305.09
2022-12-29T16:34:32.516Z,99301.75
2022-12-29T16:37:03.424Z,99304.55
2022-12-29T16:39:36.907Z,99303.95
2022-12-29T16:42:38.989Z,99306.08
2022-12-29T16:45:24.891Z,99305.08
2022-12-29T16:48:05.726Z,99308.73
2022-12-29T16:50:38.620Z,99310.97
2022-12-29T16:53:20.596Z,99313.69
2022-12-29T16:55:54.523Z,99302.69
2022-12-29T16:58:27.117Z,99312.84
2022-12-29T17:01:01.297Z,99311.83
2022-12-29T17:03:39.188Z,99323.38
2022-12-29T17:06:15.698Z,99323.73
2022-12-29T17:08:47.049Z,99327.35
2022-12-29T17:11:53.885Z,99328.42
2022-12-29T17:14:37.782Z,99335.63
2022-12-29T17:17:15.747Z,99337.95
2022-12-29T17:19:49.106Z,99340.05
2022-12-29T17:22:21.113Z,99339.94
2022-12-29T17:24:52.971Z,99334.88
2022-12-29T17:27:32.043Z,99338.21
2022-12-29T17:30:14.870Z,99341.55
2022-12-29T17:32:44.756Z,99335.91
2022-12-29T17:35:17.767Z,99337.34
2022-12-29T17:37:47.758Z,99336.79
2022-12-29T17:40:32.274Z,99330.15
2022-12-29T17:43:01.424Z,99328.86
2022-12-29T17:45:32.081Z,99325.56
2022-12-29T17:48:02.201Z,99323.48
2022-12-29T17:51:01.212Z,99326.64
2022-12-29T17:53:32.802Z,99333.84
2022-12-29T17:56:02.133Z,99333.16
2022-12-29T17:58:33.078Z,99334.52
2022-12-29T18:01:05.525Z,99333.94
2022-12-29T18:03:37.075Z,99333.39
2022-12-29T18:06:08.036Z,99335.49
2022-12-29T18:08:38.593Z,99340.30
2022-12-29T18:11:26.988Z,99342.35
2022-12-29T18:17:52.503Z,99345.70
2022-12-29T18:20:26.029Z,99345.27
2022-12-29T18:23:02.725Z,99348.31
2022-12-29T18:25:49.271Z,99349.48
2022-12-29T18:28:29.236Z,99352.56
2022-12-29T18:31:14.904Z,99352.13
2022-12-29T18:33:45.233Z,99351.61
2022-12-29T18:36:23.141Z,99351.55
2022-12-29T18:39:02.045Z,99347.07
2022-12-29T18:41:34.387Z,99355.39
2022-12-29T18:44:05.483Z,99357.19
2022-12-29T18:46:35.521Z,99347.66
2022-12-29T18:49:18.871Z,99356.96
2022-12-29T18:51:50.160Z,99350.77
2022-12-29T18:54:45.911Z,99344.80
2022-12-29T18:57:21.371Z,99352.38
2022-12-29T18:59:52.222Z,99354.13
2022-12-29T19:02:22.458Z,99355.51
2022-12-29T19:04:53.154Z,99361.96
2022-12-29T19:07:23.711Z,99353.80
2022-12-29T19:09:52.571Z,99354.66
2022-12-29T19:12:28.206Z,99354.23
2022-12-29T19:14:57.208Z,99366.06
2022-12-29T19:17:25.386Z,99358.61
2022-12-29T19:19:54.455Z,99361.42
2022-12-29T19:22:23.561Z,99355.63
2022-12-29T19:24:54.945Z,99351.50
2022-12-29T19:27:28.901Z,99350.10
2022-12-29T19:29:57.772Z,99353.15
2022-12-29T19:32:26.313Z,99349.39
2022-12-29T19:34:56.359Z,99362.04
2022-12-29T19:37:25.616Z,99360.03
2022-12-29T19:39:53.324Z,99357.06
2022-12-29T19:42:21.675Z,99362.80
2022-12-29T19:44:49.366Z,99364.40
2022-12-29T19:47:20.878Z,99367.69
2022-12-29T19:49:53.261Z,99369.20
2022-12-29T19:53:01.840Z,99366.96
2022-12-29T19:55:47.816Z,99364.75
2022-12-29T19:58:15.562Z,99356.14
2022-12-29T20:00:45.072Z,99359.55
2022-12-29T20:03:14.625Z,99361.28
2022-12-29T20:05:48.659Z,99360.50
2022-12-29T20:08:16.813Z,99359.77
2022-12-29T20:10:45.563Z,99365.86
2022-12-29T20:13:13.472Z,99362.97
2022-12-29T20:15:44.286Z,99369.83
2022-12-29T20:18:14.243Z,99372.93
2022-12-29T20:20:43.880Z,99374.50
2022-12-29T20:23:12.307Z,99374.26
2022-12-29T20:25:45.227Z,99378.69
2022-12-29T20:28:16.167Z,99379.40
2022-12-29T20:30:45.078Z,99379.45
2022-12-29T20:33:12.908Z,99381.23
2022-12-29T20:35:44.629Z,99386.05
2022-12-29T20:38:15.481Z,99377.73
2022-12-29T20:40:46.963Z,99381.21
2022-12-29T20:43:16.129Z,99382.74
2022-12-29T20:45:46.850Z,99388.92
2022-12-29T20:48:15.061Z,99384.54
2022-12-29T20:50:46.877Z,99389.61
2022-12-29T20:53:14.791Z,99389.05
2022-12-29T20:55:43.167Z,99389.88
2022-12-29T20:58:23.475Z,99389.85
2022-12-29T21:00:55.571Z,99389.75
2022-12-29T21:03:25.605Z,99387.04
2022-12-29T21:05:56.401Z,99390.86
2022-12-29T21:08:29.790Z,99390.17
2022-12-29T21:11:00.752Z,99391.97
2022-12-29T21:13:30.083Z,99394.02
2022-12-29T21:16:02.424Z,99397.59
2022-12-29T21:18:31.617Z,99398.92
2022-12-29T21:21:03.843Z,99400.84
2022-12-29T21:23:32.223Z,99403.88
2022-12-29T21:26:00.625Z,99411.80
2022-12-29T21:28:28.637Z,99411.20
2022-12-29T21:30:56.334Z,99408.39
2022-12-29T21:33:23.973Z,99412.92
2022-12-29T21:35:52.643Z,99411.04
2022-12-29T21:38:22.881Z,99413.83
2022-12-29T21:40:54.041Z,99414.61
2022-12-29T21:43:24.916Z,99414.31
2022-12-29T21:45:54.484Z,99414.80
2022-12-29T21:48:26.141Z,99415.47
2022-12-29T21:51:30.121Z,99415.10
2022-12-29T21:54:19.976Z,99415.35
2022-12-29T21:56:49.951Z,99418.52
2022-12-29T21:59:37.983Z,99420.21
2022-12-29T22:02:55.822Z,99420.77
2022-12-29T22:05:43.093Z,99418.70
2022-12-29T22:08:30.411Z,99424.61
2022-12-29T22:11:17.468Z,99430.09
2022-12-29T22:13:45.853Z,99429.55
2022-12-29T22:16:15.361Z,99430.89
2022-12-29T22:18:44.521Z,99428.28
2022-12-29T22:21:13.432Z,99431.63
2022-12-29T22:23:42.851Z,99434.44
2022-12-29T22:26:14.398Z,99433.13
2022-12-29T22:28:45.742Z,99435.02
2022-12-29T22:31:29.783Z,99432.94
2022-12-29T22:34:01.422Z,99439.77
2022-12-29T22:36:30.268Z,99444.41
2022-12-29T22:38:59.068Z,99445.60
2022-12-29T22:41:28.376Z,99449.79
2022-12-29T22:43:57.457Z,99448.79
2022-12-29T22:46:25.906Z,99453.27
2022-12-29T22:48:56.864Z,99460.13
2022-12-29T22:51:26.388Z,99468.88
2022-12-29T22:53:56.608Z,99471.06
2022-12-29T22:56:24.589Z,99474.13
2022-12-29T22:58:56.208Z,99466.73
2022-12-29T23:01:26.531Z,99469.56
2022-12-29T23:04:10.988Z,99469.84
2022-12-29T23:06:43.230Z,99467.86
2022-12-29T23:09:17.899Z,99464.56
2022-12-29T23:11:47.214Z,99467.02
2022-12-29T23:14:17.131Z,99465.91
2022-12-29T23:16:50.032Z,99466.79
2022-12-29T23:19:17.839Z,99473.73
2022-12-29T23:21:45.515Z,99473.25
2022-12-29T23:24:14.761Z,99474.44
2022-12-29T23:26:46.346Z,99473.41
2022-12-29T23:29:20.130Z,99473.44
2022-12-29T23:31:48.366Z,99469.95
2022-12-29T23:34:17.246Z,99470.27
2022-12-29T23:36:46.054Z,99474.45
2022-12-29T23:39:20.052Z,99467.17
2022-12-29T23:41:52.944Z,99471.29
2022-12-29T23:44:22.867Z,99472.20
2022-12-29T23:46:51.152Z,99469.06
2022-12-29T23:49:20.504Z,99467.98
2022-12-29T23:51:48.945Z,99466.92
2022-12-29T23:54:19.020Z,99467.22
2022-12-29T23:56:47.088Z,99464.72
2022-12-29T23:59:14.643Z,99471.20
